Diligence — 9HB4504 — position and weather

sailwx.info

Track history (hours):
 
Tides and Currents Weather Stations Pressure Air Temp Water Temp Dewpoint Dewpoint Depression Visibility Wind Speed Wind Dir Waves Ship Positions

Diligence

Last reported at 2018-Apr-20 13:51 UTC. Time now 2018-Apr-20 16:24 UTC.
Position N 35°53' E 014°31'.

Length 36 m; draft 3 m.

Type: Ship. MMSI: 256660000.

Date/timePositionNaut miles runAvg speedWind from/ knotsBaromVisibWave heightAir tempDewpointWater temp
2018-Apr-20 13:51N 35°53' E 014°31'0 0.0
2018-Apr-20 13:27N 35°53' E 014°31'0 0.0
2018-Apr-20 13:00N 35°53' E 014°31'0 0.0
2018-Apr-20 12:23N 35°53' E 014°31'0 0.0
2018-Apr-20 11:59N 35°53' E 014°31'0 0.0
2018-Apr-20 11:30N 35°53' E 014°31'0 0.0
2018-Apr-20 10:57N 35°53' E 014°31'1 0.1
2018-Apr-19 15:52N 35°54' E 014°32'4 8.4
2018-Apr-19 15:26N 35°54' E 014°36'3 7.3
2018-Apr-19 14:58N 35°54' E 014°40'3 7.0
2018-Apr-19 14:30N 35°55' E 014°44'0 0.0
2018-Apr-19 13:32N 35°55' E 014°44'0 0.2
2018-Apr-19 13:18N 35°55' E 014°45'0 0.1
2018-Apr-19 12:59N 35°55' E 014°44'1 1.6
2018-Apr-19 12:25N 35°55' E 014°43'2 4.3
2018-Apr-19 11:59N 35°54' E 014°41'2 5.1
2018-Apr-19 11:30N 35°54' E 014°38'3 5.5
2018-Apr-19 10:55N 35°54' E 014°34'3 0.1
2018-Apr-18 15:29N 35°53' E 014°31'0 0.3
2018-Apr-18 14:59N 35°53' E 014°31'0 0.0
2018-Apr-18 14:30N 35°53' E 014°31'0 0.0
2018-Apr-18 14:00N 35°53' E 014°31'0 0.0
2018-Apr-18 13:30N 35°53' E 014°31'0 0.0
2018-Apr-18 10:50N 35°53' E 014°31'0 0.0
2018-Apr-18 10:27N 35°53' E 014°31'0 0.0
2018-Apr-18 09:59N 35°53' E 014°31'0 0.0
2018-Apr-18 09:07N 35°53' E 014°31'0 0.0
2018-Apr-18 08:58N 35°53' E 014°31'0 0.0
2018-Apr-18 08:23N 35°53' E 014°31'0 0.0
2018-Apr-18 07:57N 35°53' E 014°31'0 0.0
2018-Apr-18 07:22N 35°53' E 014°31'0 0.0
2018-Apr-18 06:59N 35°53' E 014°31'0 0.0
2018-Apr-18 06:30N 35°53' E 014°31'0 0.0
2018-Apr-18 05:55N 35°53' E 014°31'0 0.0
2018-Apr-18 05:30N 35°53' E 014°31'0 0.0
2018-Apr-18 04:55N 35°53' E 014°31'0 0.0
2018-Apr-18 04:25N 35°53' E 014°31'0 0.0
2018-Apr-18 04:00N 35°53' E 014°31'0 0.0
2018-Apr-18 03:28N 35°53' E 014°31'0 0.0
2018-Apr-18 03:00N 35°53' E 014°31'0 0.0
2018-Apr-18 02:30N 35°53' E 014°31'0 0.0
2018-Apr-18 01:59N 35°53' E 014°31'0 0.0
2018-Apr-18 01:28N 35°53' E 014°31'0 0.0
2018-Apr-18 01:00N 35°53' E 014°31'0 0.0
2018-Apr-18 00:26N 35°53' E 014°31'0 0.0
2018-Apr-17 23:52N 35°53' E 014°31'0 0.0
2018-Apr-17 23:30N 35°53' E 014°31'0 0.0
2018-Apr-17 22:55N 35°53' E 014°31'0 0.0
2018-Apr-17 22:18N 35°53' E 014°31'0 0.0
2018-Apr-17 21:49N 35°53' E 014°31'0 0.0
2018-Apr-17 21:15N 35°53' E 014°31'0 0.0
2018-Apr-17 20:57N 35°53' E 014°31'0 0.0
2018-Apr-17 20:24N 35°53' E 014°31'0 0.0
2018-Apr-17 19:41N 35°53' E 014°31'0 0.0
2018-Apr-17 19:14N 35°53' E 014°31'0 0.0
2018-Apr-17 19:00N 35°53' E 014°31'0 0.0
2018-Apr-17 18:15N 35°53' E 014°31'0 0.0
2018-Apr-17 18:00N 35°53' E 014°31'0 0.0
2018-Apr-17 17:30N 35°53' E 014°31'0 0.0
2018-Apr-17 17:00N 35°53' E 014°31'0 0.0
2018-Apr-17 16:27N 35°53' E 014°31'0 0.0
2018-Apr-17 15:37N 35°53' E 014°31'0 0.0
2018-Apr-17 15:13N 35°53' E 014°31'0 0.0
2018-Apr-17 14:43N 35°53' E 014°31'0 0.0
2018-Apr-17 14:27N 35°53' E 014°31'0 0.0
2018-Apr-17 13:58N 35°53' E 014°31'0 0.0
2018-Apr-17 13:22N 35°53' E 014°31'0 0.0
2018-Apr-17 06:04N 35°53' E 014°31'0 0.0
2018-Apr-17 05:47N 35°53' E 014°31'0 0.0
2018-Apr-17 05:24N 35°53' E 014°31'0 0.0
2018-Apr-17 04:33N 35°53' E 014°31'0 0.1
2018-Apr-17 04:29N 35°53' E 014°31'0 0.0
2018-Apr-17 03:58N 35°53' E 014°31'0 0.0
2018-Apr-17 03:30N 35°53' E 014°31'0 0.0
2018-Apr-17 02:56N 35°53' E 014°31'0 0.0
2018-Apr-17 02:26N 35°53' E 014°31'0 0.0
2018-Apr-17 01:55N 35°53' E 014°31'0 0.0
2018-Apr-17 01:29N 35°53' E 014°31'0 0.0
2018-Apr-17 00:57N 35°53' E 014°31'0 0.0
2018-Apr-17 00:25N 35°53' E 014°31'0 0.0
2018-Apr-16 23:54N 35°53' E 014°31'0 0.0
2018-Apr-16 23:27N 35°53' E 014°31'0 0.0
2018-Apr-16 23:00N 35°53' E 014°31'0 0.0
2018-Apr-16 22:25N 35°53' E 014°31'0 0.0
2018-Apr-16 22:00N 35°53' E 014°31'0 0.0
2018-Apr-16 21:15N 35°53' E 014°31'0 0.0
2018-Apr-16 21:00N 35°53' E 014°31'0 0.0
2018-Apr-16 20:28N 35°53' E 014°31'0 0.0
2018-Apr-16 19:51N 35°53' E 014°31'0 0.0
2018-Apr-16 19:23N 35°53' E 014°31'0 0.0
2018-Apr-16 18:43N 35°53' E 014°31'0 0.0
2018-Apr-16 18:27N 35°53' E 014°31'0 0.0
2018-Apr-16 17:14N 35°53' E 014°31'0 0.0
2018-Apr-16 16:56N 35°53' E 014°31'0 0.0
2018-Apr-16 16:07N 35°53' E 014°31'0 0.0
2018-Apr-16 15:43N 35°53' E 014°31'0 0.0
2018-Apr-16 15:15N 35°53' E 014°31'0 0.0
2018-Apr-16 14:58N 35°53' E 014°31'0 0.0
2018-Apr-16 14:09N 35°53' E 014°31'0 0.0
2018-Apr-16 13:56N 35°53' E 014°31'0 0.0
2018-Apr-16 13:30N 35°53' E 014°31'0 0.0
2018-Apr-16 12:14N 35°53' E 014°31'0 0.0
2018-Apr-16 12:00N 35°53' E 014°31'0 0.0
2018-Apr-16 11:27N 35°53' E 014°31'0 0.0
2018-Apr-16 10:53N 35°53' E 014°31'0 0.0
2018-Apr-16 10:28N 35°53' E 014°31'0 0.0
2018-Apr-16 09:54N 35°53' E 014°31'0 0.0
2018-Apr-16 09:31N 35°53' E 014°31'0 0.0
2018-Apr-16 09:01N 35°53' E 014°31'0 0.0
2018-Apr-16 08:30N 35°53' E 014°31'0 0.0
2018-Apr-16 08:00N 35°53' E 014°31'0 0.0
2018-Apr-16 07:17N 35°53' E 014°31'0 0.0
2018-Apr-16 06:54N 35°53' E 014°31'0 0.0
2018-Apr-16 06:26N 35°53' E 014°31'0 0.0
2018-Apr-16 05:51N 35°53' E 014°31'0 0.0
2018-Apr-16 05:28N 35°53' E 014°31'0 0.0
2018-Apr-16 04:55N 35°53' E 014°31'0 0.0
2018-Apr-16 04:30N 35°53' E 014°31'0 0.0
2018-Apr-16 04:00N 35°53' E 014°31'0 0.0
2018-Apr-16 03:30N 35°53' E 014°31'0 0.0
2018-Apr-16 02:59N 35°53' E 014°31'0 0.0
2018-Apr-16 02:24N 35°53' E 014°31'0 0.0
2018-Apr-16 01:45N 35°53' E 014°31'0 0.0
2018-Apr-16 01:21N 35°53' E 014°31'0 0.0
2018-Apr-16 00:54N 35°53' E 014°31'0 0.0
2018-Apr-16 00:21N 35°53' E 014°31'0 0.0
2018-Apr-15 23:58N 35°53' E 014°31'0 0.0
2018-Apr-15 23:25N 35°53' E 014°31'0 0.0
2018-Apr-15 22:59N 35°53' E 014°31'0 0.0
2018-Apr-15 22:30N 35°53' E 014°31'0 0.0
2018-Apr-15 21:43N 35°53' E 014°31'0 0.0
2018-Apr-15 21:27N 35°53' E 014°31'0 0.0
2018-Apr-15 20:59N 35°53' E 014°31'0 0.0
2018-Apr-15 20:21N 35°53' E 014°31'0 0.0
2018-Apr-15 19:58N 35°53' E 014°31'0 0.0
2018-Apr-15 19:28N 35°53' E 014°31'0 0.0
2018-Apr-15 18:59N 35°53' E 014°31'0 0.0
2018-Apr-15 18:31N 35°53' E 014°31'0 0.0
2018-Apr-15 17:59N 35°53' E 014°31'0 0.0
2018-Apr-15 17:29N 35°53' E 014°31'0 0.0
2018-Apr-15 16:56N 35°53' E 014°31'0 0.0
2018-Apr-15 16:30N 35°53' E 014°31'0 0.0
2018-Apr-15 16:00N 35°53' E 014°31'0 0.0
2018-Apr-15 15:30N 35°53' E 014°31'0 0.0
2018-Apr-15 14:59N 35°53' E 014°31'0 0.0
2018-Apr-15 14:30N 35°53' E 014°31'0 0.0
2018-Apr-15 13:59N 35°53' E 014°31'0 0.0
2018-Apr-15 13:28N 35°53' E 014°31'0 0.0
2018-Apr-15 12:59N 35°53' E 014°31'0 0.0
2018-Apr-15 12:30N 35°53' E 014°31'0 0.0
2018-Apr-15 12:00N 35°53' E 014°31'0 0.0
2018-Apr-15 11:27N 35°53' E 014°31'0 0.0
2018-Apr-15 11:00N 35°53' E 014°31'0 0.0
2018-Apr-15 10:05N 35°53' E 014°31'0 0.0
2018-Apr-15 09:56N 35°53' E 014°31'0 0.0
2018-Apr-15 09:22N 35°53' E 014°31'0 0.0
2018-Apr-15 08:59N 35°53' E 014°31'0 0.0
2018-Apr-15 08:30N 35°53' E 014°31'0 0.0
2018-Apr-15 08:00N 35°53' E 014°31'0 0.0
2018-Apr-15 07:30N 35°53' E 014°31'0 0.0
2018-Apr-15 06:58N 35°53' E 014°31'0 0.0
2018-Apr-15 06:29N 35°53' E 014°31'0 0.0
2018-Apr-15 05:58N 35°53' E 014°31'0 0.0
2018-Apr-15 05:28N 35°53' E 014°31'0 0.0
2018-Apr-15 05:00N 35°53' E 014°31'0 0.0
2018-Apr-15 04:28N 35°53' E 014°31'0 0.0
2018-Apr-15 03:59N 35°53' E 014°31'0 0.0
2018-Apr-15 03:30N 35°53' E 014°31'0 0.0
2018-Apr-15 02:55N 35°53' E 014°31'0 0.0
2018-Apr-15 02:27N 35°53' E 014°31'1 0.0
2018-Apr-13 12:52N 35°54' E 014°32'5 2.0
2018-Apr-13 10:25N 35°50' E 014°35'3 7.2
2018-Apr-13 09:56N 35°53' E 014°33'2 0.1
2018-Apr-12 15:12N 35°53' E 014°31'0 0.0
2018-Apr-12 15:00N 35°53' E 014°31'0 0.0
2018-Apr-12 14:30N 35°53' E 014°31'0 0.0
2018-Apr-12 14:00N 35°53' E 014°31'0 0.0
2018-Apr-12 13:30N 35°53' E 014°31'0 0.0
2018-Apr-12 13:00N 35°53' E 014°31'0 0.0
2018-Apr-12 12:30N 35°53' E 014°31'0 0.0
2018-Apr-12 11:58N 35°53' E 014°31'0 0.0
2018-Apr-12 11:26N 35°53' E 014°31'0 0.0
2018-Apr-12 10:58N 35°53' E 014°31'0 0.0
2018-Apr-12 10:29N 35°53' E 014°31'0 0.0
2018-Apr-12 09:56N 35°53' E 014°31'0 0.0
2018-Apr-12 09:30N 35°53' E 014°31'0 0.0
2018-Apr-12 08:54N 35°53' E 014°31'0 0.0
2018-Apr-12 08:30N 35°53' E 014°31'  
Track history (hours):
 
Tides and Currents Weather Stations Pressure Air Temp Water Temp Dewpoint Dewpoint Depression Visibility Wind Speed Wind Dir Waves Ship Positions

Diligence

Last reported at 2018-Apr-20 13:51 UTC. Time now 2018-Apr-20 16:24 UTC.
Position N 35°53' E 014°31'.

Length 36 m; draft 3 m.

Type: Ship. MMSI: 256660000.

Date/timePositionNaut miles runAvg speedWind from/ knotsBaromVisibWave heightAir tempDewpointWater temp
2018-Apr-20 13:51N 35°53' E 014°31'0 0.0
2018-Apr-20 13:27N 35°53' E 014°31'0 0.0
2018-Apr-20 13:00N 35°53' E 014°31'0 0.0
2018-Apr-20 12:23N 35°53' E 014°31'0 0.0
2018-Apr-20 11:59N 35°53' E 014°31'0 0.0
2018-Apr-20 11:30N 35°53' E 014°31'0 0.0
2018-Apr-20 10:57N 35°53' E 014°31'1 0.1
2018-Apr-19 15:52N 35°54' E 014°32'4 8.4
2018-Apr-19 15:26N 35°54' E 014°36'3 7.3
2018-Apr-19 14:58N 35°54' E 014°40'3 7.0
2018-Apr-19 14:30N 35°55' E 014°44'0 0.0
2018-Apr-19 13:32N 35°55' E 014°44'0 0.2
2018-Apr-19 13:18N 35°55' E 014°45'0 0.1
2018-Apr-19 12:59N 35°55' E 014°44'1 1.6
2018-Apr-19 12:25N 35°55' E 014°43'2 4.3
2018-Apr-19 11:59N 35°54' E 014°41'2 5.1
2018-Apr-19 11:30N 35°54' E 014°38'3 5.5
2018-Apr-19 10:55N 35°54' E 014°34'3 0.1
2018-Apr-18 15:29N 35°53' E 014°31'0 0.3
2018-Apr-18 14:59N 35°53' E 014°31'0 0.0
2018-Apr-18 14:30N 35°53' E 014°31'0 0.0
2018-Apr-18 14:00N 35°53' E 014°31'0 0.0
2018-Apr-18 13:30N 35°53' E 014°31'0 0.0
2018-Apr-18 10:50N 35°53' E 014°31'0 0.0
2018-Apr-18 10:27N 35°53' E 014°31'0 0.0
2018-Apr-18 09:59N 35°53' E 014°31'0 0.0
2018-Apr-18 09:07N 35°53' E 014°31'0 0.0
2018-Apr-18 08:58N 35°53' E 014°31'0 0.0
2018-Apr-18 08:23N 35°53' E 014°31'0 0.0
2018-Apr-18 07:57N 35°53' E 014°31'0 0.0
2018-Apr-18 07:22N 35°53' E 014°31'0 0.0
2018-Apr-18 06:59N 35°53' E 014°31'0 0.0
2018-Apr-18 06:30N 35°53' E 014°31'0 0.0
2018-Apr-18 05:55N 35°53' E 014°31'0 0.0
2018-Apr-18 05:30N 35°53' E 014°31'0 0.0
2018-Apr-18 04:55N 35°53' E 014°31'0 0.0
2018-Apr-18 04:25N 35°53' E 014°31'0 0.0
2018-Apr-18 04:00N 35°53' E 014°31'0 0.0
2018-Apr-18 03:28N 35°53' E 014°31'0 0.0
2018-Apr-18 03:00N 35°53' E 014°31'0 0.0
2018-Apr-18 02:30N 35°53' E 014°31'0 0.0
2018-Apr-18 01:59N 35°53' E 014°31'0 0.0
2018-Apr-18 01:28N 35°53' E 014°31'0 0.0
2018-Apr-18 01:00N 35°53' E 014°31'0 0.0
2018-Apr-18 00:26N 35°53' E 014°31'0 0.0
2018-Apr-17 23:52N 35°53' E 014°31'0 0.0
2018-Apr-17 23:30N 35°53' E 014°31'0 0.0
2018-Apr-17 22:55N 35°53' E 014°31'0 0.0
2018-Apr-17 22:18N 35°53' E 014°31'0 0.0
2018-Apr-17 21:49N 35°53' E 014°31'0 0.0
2018-Apr-17 21:15N 35°53' E 014°31'0 0.0
2018-Apr-17 20:57N 35°53' E 014°31'0 0.0
2018-Apr-17 20:24N 35°53' E 014°31'0 0.0
2018-Apr-17 19:41N 35°53' E 014°31'0 0.0
2018-Apr-17 19:14N 35°53' E 014°31'0 0.0
2018-Apr-17 19:00N 35°53' E 014°31'0 0.0
2018-Apr-17 18:15N 35°53' E 014°31'0 0.0
2018-Apr-17 18:00N 35°53' E 014°31'0 0.0
2018-Apr-17 17:30N 35°53' E 014°31'0 0.0
2018-Apr-17 17:00N 35°53' E 014°31'0 0.0
2018-Apr-17 16:27N 35°53' E 014°31'0 0.0
2018-Apr-17 15:37N 35°53' E 014°31'0 0.0
2018-Apr-17 15:13N 35°53' E 014°31'0 0.0
2018-Apr-17 14:43N 35°53' E 014°31'0 0.0
2018-Apr-17 14:27N 35°53' E 014°31'0 0.0
2018-Apr-17 13:58N 35°53' E 014°31'0 0.0
2018-Apr-17 13:22N 35°53' E 014°31'0 0.0
2018-Apr-17 06:04N 35°53' E 014°31'0 0.0
2018-Apr-17 05:47N 35°53' E 014°31'0 0.0
2018-Apr-17 05:24N 35°53' E 014°31'0 0.0
2018-Apr-17 04:33N 35°53' E 014°31'0 0.1
2018-Apr-17 04:29N 35°53' E 014°31'0 0.0
2018-Apr-17 03:58N 35°53' E 014°31'0 0.0
2018-Apr-17 03:30N 35°53' E 014°31'0 0.0
2018-Apr-17 02:56N 35°53' E 014°31'0 0.0
2018-Apr-17 02:26N 35°53' E 014°31'0 0.0
2018-Apr-17 01:55N 35°53' E 014°31'0 0.0
2018-Apr-17 01:29N 35°53' E 014°31'0 0.0
2018-Apr-17 00:57N 35°53' E 014°31'0 0.0
2018-Apr-17 00:25N 35°53' E 014°31'0 0.0
2018-Apr-16 23:54N 35°53' E 014°31'0 0.0
2018-Apr-16 23:27N 35°53' E 014°31'0 0.0
2018-Apr-16 23:00N 35°53' E 014°31'0 0.0
2018-Apr-16 22:25N 35°53' E 014°31'0 0.0
2018-Apr-16 22:00N 35°53' E 014°31'0 0.0
2018-Apr-16 21:15N 35°53' E 014°31'0 0.0
2018-Apr-16 21:00N 35°53' E 014°31'0 0.0
2018-Apr-16 20:28N 35°53' E 014°31'0 0.0
2018-Apr-16 19:51N 35°53' E 014°31'0 0.0
2018-Apr-16 19:23N 35°53' E 014°31'0 0.0
2018-Apr-16 18:43N 35°53' E 014°31'0 0.0
2018-Apr-16 18:27N 35°53' E 014°31'0 0.0
2018-Apr-16 17:14N 35°53' E 014°31'0 0.0
2018-Apr-16 16:56N 35°53' E 014°31'0 0.0
2018-Apr-16 16:07N 35°53' E 014°31'0 0.0
2018-Apr-16 15:43N 35°53' E 014°31'0 0.0
2018-Apr-16 15:15N 35°53' E 014°31'0 0.0
2018-Apr-16 14:58N 35°53' E 014°31'0 0.0
2018-Apr-16 14:09N 35°53' E 014°31'0 0.0
2018-Apr-16 13:56N 35°53' E 014°31'0 0.0
2018-Apr-16 13:30N 35°53' E 014°31'0 0.0
2018-Apr-16 12:14N 35°53' E 014°31'0 0.0
2018-Apr-16 12:00N 35°53' E 014°31'0 0.0
2018-Apr-16 11:27N 35°53' E 014°31'0 0.0
2018-Apr-16 10:53N 35°53' E 014°31'0 0.0
2018-Apr-16 10:28N 35°53' E 014°31'0 0.0
2018-Apr-16 09:54N 35°53' E 014°31'0 0.0
2018-Apr-16 09:31N 35°53' E 014°31'0 0.0
2018-Apr-16 09:01N 35°53' E 014°31'0 0.0
2018-Apr-16 08:30N 35°53' E 014°31'0 0.0
2018-Apr-16 08:00N 35°53' E 014°31'0 0.0
2018-Apr-16 07:17N 35°53' E 014°31'0 0.0
2018-Apr-16 06:54N 35°53' E 014°31'0 0.0
2018-Apr-16 06:26N 35°53' E 014°31'0 0.0
2018-Apr-16 05:51N 35°53' E 014°31'0 0.0
2018-Apr-16 05:28N 35°53' E 014°31'0 0.0
2018-Apr-16 04:55N 35°53' E 014°31'0 0.0
2018-Apr-16 04:30N 35°53' E 014°31'0 0.0
2018-Apr-16 04:00N 35°53' E 014°31'0 0.0
2018-Apr-16 03:30N 35°53' E 014°31'0 0.0
2018-Apr-16 02:59N 35°53' E 014°31'0 0.0
2018-Apr-16 02:24N 35°53' E 014°31'0 0.0
2018-Apr-16 01:45N 35°53' E 014°31'0 0.0
2018-Apr-16 01:21N 35°53' E 014°31'0 0.0
2018-Apr-16 00:54N 35°53' E 014°31'0 0.0
2018-Apr-16 00:21N 35°53' E 014°31'0 0.0
2018-Apr-15 23:58N 35°53' E 014°31'0 0.0
2018-Apr-15 23:25N 35°53' E 014°31'0 0.0
2018-Apr-15 22:59N 35°53' E 014°31'0 0.0
2018-Apr-15 22:30N 35°53' E 014°31'0 0.0
2018-Apr-15 21:43N 35°53' E 014°31'0 0.0
2018-Apr-15 21:27N 35°53' E 014°31'0 0.0
2018-Apr-15 20:59N 35°53' E 014°31'0 0.0
2018-Apr-15 20:21N 35°53' E 014°31'0 0.0
2018-Apr-15 19:58N 35°53' E 014°31'0 0.0
2018-Apr-15 19:28N 35°53' E 014°31'0 0.0
2018-Apr-15 18:59N 35°53' E 014°31'0 0.0
2018-Apr-15 18:31N 35°53' E 014°31'0 0.0
2018-Apr-15 17:59N 35°53' E 014°31'0 0.0
2018-Apr-15 17:29N 35°53' E 014°31'0 0.0
2018-Apr-15 16:56N 35°53' E 014°31'0 0.0
2018-Apr-15 16:30N 35°53' E 014°31'0 0.0
2018-Apr-15 16:00N 35°53' E 014°31'0 0.0
2018-Apr-15 15:30N 35°53' E 014°31'0 0.0
2018-Apr-15 14:59N 35°53' E 014°31'0 0.0
2018-Apr-15 14:30N 35°53' E 014°31'0 0.0
2018-Apr-15 13:59N 35°53' E 014°31'0 0.0
2018-Apr-15 13:28N 35°53' E 014°31'0 0.0
2018-Apr-15 12:59N 35°53' E 014°31'0 0.0
2018-Apr-15 12:30N 35°53' E 014°31'0 0.0
2018-Apr-15 12:00N 35°53' E 014°31'0 0.0
2018-Apr-15 11:27N 35°53' E 014°31'0 0.0
2018-Apr-15 11:00N 35°53' E 014°31'0 0.0
2018-Apr-15 10:05N 35°53' E 014°31'0 0.0
2018-Apr-15 09:56N 35°53' E 014°31'0 0.0
2018-Apr-15 09:22N 35°53' E 014°31'0 0.0
2018-Apr-15 08:59N 35°53' E 014°31'0 0.0
2018-Apr-15 08:30N 35°53' E 014°31'0 0.0
2018-Apr-15 08:00N 35°53' E 014°31'0 0.0
2018-Apr-15 07:30N 35°53' E 014°31'0 0.0
2018-Apr-15 06:58N 35°53' E 014°31'0 0.0
2018-Apr-15 06:29N 35°53' E 014°31'0 0.0
2018-Apr-15 05:58N 35°53' E 014°31'0 0.0
2018-Apr-15 05:28N 35°53' E 014°31'0 0.0
2018-Apr-15 05:00N 35°53' E 014°31'0 0.0
2018-Apr-15 04:28N 35°53' E 014°31'0 0.0
2018-Apr-15 03:59N 35°53' E 014°31'0 0.0
2018-Apr-15 03:30N 35°53' E 014°31'0 0.0
2018-Apr-15 02:55N 35°53' E 014°31'0 0.0
2018-Apr-15 02:27N 35°53' E 014°31'1 0.0
2018-Apr-13 12:52N 35°54' E 014°32'5 2.0
2018-Apr-13 10:25N 35°50' E 014°35'3 7.2
2018-Apr-13 09:56N 35°53' E 014°33'2 0.1
2018-Apr-12 15:12N 35°53' E 014°31'0 0.0
2018-Apr-12 15:00N 35°53' E 014°31'0 0.0
2018-Apr-12 14:30N 35°53' E 014°31'0 0.0
2018-Apr-12 14:00N 35°53' E 014°31'0 0.0
2018-Apr-12 13:30N 35°53' E 014°31'0 0.0
2018-Apr-12 13:00N 35°53' E 014°31'0 0.0
2018-Apr-12 12:30N 35°53' E 014°31'0 0.0
2018-Apr-12 11:58N 35°53' E 014°31'0 0.0
2018-Apr-12 11:26N 35°53' E 014°31'0 0.0
2018-Apr-12 10:58N 35°53' E 014°31'0 0.0
2018-Apr-12 10:29N 35°53' E 014°31'0 0.0
2018-Apr-12 09:56N 35°53' E 014°31'0 0.0
2018-Apr-12 09:30N 35°53' E 014°31'0 0.0
2018-Apr-12 08:54N 35°53' E 014°31'0 0.0
2018-Apr-12 08:30N 35°53' E 014°31'  

Dump ship's entire track history